Flight Track Log - Related Links

Times and Time Zones

All times are in EDT time to prevent confusion due to time zone crossing. See the EJA922 flight status page for this flight to view local times or setup timezone preferences in your user account.

Time Position Orientation Groundspeed Altitude Reporting Facility
EDT Latitude Longitude Course Direction KTS MPH feet Rate Location/Type
Sat 01:02:56 PM 44.0528 -70.3572 198° South 222 255 5,200  Level Boston Center
Sat 01:03:56 PM 43.9889 -70.3942 203° Southwest 250 288 8,200 2,450 Climbing Boston Center
Sat 01:04:56 PM 43.9044 -70.4431 203° Southwest 298 343 10,100 2,050 Climbing Boston Center
Sat 01:05:56 PM 43.8217 -70.4775 197° South 336 387 12,300 2,350 Climbing Boston Center
Sat 01:06:56 PM 43.7158 -70.5183 196° South 358 412 14,800 2,400 Climbing Boston Center
Sat 01:07:00 PM 43.4765 -70.5601 197° South  Level FlightAware Approximate
Sat 01:07:56 PM 43.6231 -70.5700 202° Southwest 358 412 17,100  Level Boston Center
Sat 01:08:00 PM 43.3806 -70.6012 198° South  Level FlightAware Approximate
Sat 01:08:56 PM 43.5453 -70.6583 219° Southwest 364 419 18,800  Level Boston Center
Sat 01:09:56 PM 43.4903 -70.7486 230° Southwest 356 410 20,500 1,600 Climbing Boston Center
Sat 01:10:56 PM 43.4211 -70.8564 229° Southwest 363 418 22,000 1,450 Climbing Boston Center
Sat 01:11:56 PM 43.3475 -70.9697 228° Southwest 384 442 23,400 1,500 Climbing Boston Center
Sat 01:12:56 PM 43.2739 -71.0800 228° Southwest 389 448 25,000 1,400 Climbing Boston Center
Sat 01:13:56 PM 43.1981 -71.1956 228° Southwest 400 460 26,200 1,200 Climbing Boston Center
Sat 01:14:56 PM 43.1222 -71.3136 229° Southwest 405 466 27,400 1,200 Climbing Boston Center
Sat 01:15:56 PM 43.0358 -71.4458 228° Southwest 420 483 28,600 1,050 Climbing Boston Center
Sat 01:16:56 PM 42.9556 -71.5578 226° Southwest 425 489 29,500 1,000 Climbing Boston Center
Sat 01:17:56 PM 42.8772 -71.6781 228° Southwest 420 483 30,600 1,150 Climbing Boston Center
Sat 01:18:56 PM 42.7944 -71.7950 226° Southwest 426 490 31,800 1,200 Climbing Boston Center
Sat 01:19:56 PM 42.7139 -71.9172 228° Southwest 426 490 33,000 1,700 Climbing Boston Center
Sat 01:20:56 PM 42.6331 -72.0367 227° Southwest 426 490 35,200 1,500 Climbing Boston Center
Sat 01:21:56 PM 42.5500 -72.1556 227° Southwest 426 490 36,000 400 Climbing Boston Center
Sat 01:22:56 PM 42.4858 -72.2600 230° Southwest 431 496 36,000 350 Level Boston Center
Sat 01:23:56 PM 42.4506 -72.4400 255° West 436 502 36,700 900 Climbing Boston Center
Sat 01:24:56 PM 42.4294 -72.6172 261° West 452 520 37,800 1,100 Climbing Boston Center
Sat 01:25:56 PM 42.4103 -72.7831 261° West 457 526 38,900 950 Climbing Boston Center
Sat 01:26:56 PM 42.3908 -72.9489 261° West 457 526 39,700 550 Climbing Boston Center
Sat 01:27:56 PM 42.3692 -73.1200 260° West 457 526 40,000 150 Climbing Boston Center
Sat 01:28:56 PM 42.3472 -73.2969 261° West 471 542 40,000  Level Boston Center
Sat 01:29:56 PM 42.3228 -73.4706 259° West 471 542 40,000  Level Boston Center
Sat 01:30:56 PM 42.3022 -73.6444 261° West 476 548 40,000  Level Boston Center
Sat 01:31:56 PM 42.2731 -73.8431 259° West 483 556 40,000  Level Boston Center
Sat 01:32:56 PM 42.2500 -73.9994 259° West 483 556 40,000  Level Boston Center
Sat 01:33:56 PM 42.2289 -74.1700 261° West 478 550 40,000  Level Boston Center
Sat 01:34:56 PM 42.2053 -74.3433 260° West 478 550 40,000  Level Boston Center
Sat 01:37:05 PM 42.1511 -74.7233 259° West 469 540 40,000  Level New York Center
Sat 01:38:04 PM 42.1244 -74.8925 258° West 464 534 40,000  Level New York Center
Sat 01:39:04 PM 42.1025 -75.0475 259° West 464 534 40,000  Level New York Center
Sat 01:40:05 PM 42.0747 -75.2328 259° West 469 540 40,000  Level New York Center
Sat 01:41:03 PM 42.0311 -75.3975 250° West 469 540 40,000  Level New York Center
Sat 01:42:03 PM 41.9686 -75.5519 241° Southwest 469 540 40,000  Level New York Center
Sat 01:43:04 PM 41.9083 -75.7036 242° Southwest 469 540 40,000  Level New York Center
Sat 01:44:03 PM 41.8536 -75.8639 245° Southwest 474 545 40,000  Level New York Center
Sat 01:45:04 PM 41.7986 -76.0267 246° West 474 545 40,000  Level New York Center
Sat 01:46:03 PM 41.7458 -76.1836 246° West 474 545 40,000  Level New York Center
Sat 01:47:04 PM 41.6925 -76.3461 246° West 474 545 40,000  Level New York Center
Sat 01:48:05 PM 41.6372 -76.5025 245° Southwest 474 545 40,000  Level New York Center
Sat 01:49:06 PM 41.5792 -76.6639 244° Southwest 474 545 40,000  Level New York Center
Sat 01:50:03 PM 41.5286 -76.8036 244° Southwest 469 540 40,000  Level New York Center
Sat 01:51:04 PM 41.4672 -76.9808 245° Southwest 483 556 40,000  Level New York Center
Sat 01:52:04 PM 41.4108 -77.1417 245° Southwest 488 562 40,000  Level New York Center
Sat 01:53:05 PM 41.3544 -77.2967 244° Southwest 488 562 40,000  Level New York Center
Sat 01:54:03 PM 41.2981 -77.4514 244° Southwest 483 556 40,000  Level New York Center
Sat 01:55:04 PM 41.2408 -77.6114 245° Southwest 483 556 40,000  Level New York Center
Sat 01:57:24 PM 41.1108 -77.9650 244° Southwest 486 559 40,000  Level Cleveland Center
Sat 01:58:24 PM 41.0539 -78.1214 244° Southwest 486 559 40,000  Level Cleveland Center
Sat 01:59:24 PM 40.9967 -78.2831 245° Southwest 481 554 40,000  Level Cleveland Center
Sat 02:00:24 PM 40.9372 -78.4419 244° Southwest 481 554 40,000  Level Cleveland Center
Sat 02:01:24 PM 40.8797 -78.6003 244° Southwest 481 554 40,000  Level Cleveland Center
Sat 02:02:24 PM 40.8156 -78.7614 242° Southwest 487 560 40,000  Level Cleveland Center
Sat 02:03:24 PM 40.7575 -78.9164 244° Southwest 487 560 40,000  Level Cleveland Center
Sat 02:04:24 PM 40.7014 -79.0714 245° Southwest 482 555 40,000  Level Cleveland Center
Sat 02:05:24 PM 40.6408 -79.2286 243° Southwest 477 549 40,000 -600 Level Cleveland Center
Sat 02:06:24 PM 40.5947 -79.3908 250° West 477 549 38,800 -1,850 Descending Cleveland Center
Sat 02:07:24 PM 40.5586 -79.5556 254° West 477 549 36,300 -2,500 Descending Cleveland Center
Sat 02:08:24 PM 40.5372 -79.7281 261° West 477 549 33,800 -2,500 Descending Cleveland Center
Sat 02:09:24 PM 40.5175 -79.9003 261° West 483 556 31,300 -1,900 Descending Cleveland Center
Sat 02:10:24 PM 40.4914 -80.0836 259° West 494 568 30,000 -650 Descending Cleveland Center
Sat 02:11:24 PM 40.4692 -80.2611 261° West 499 574 30,000  Level Cleveland Center
Sat 02:12:24 PM 40.4486 -80.4467 262° West 494 568 30,000  Level Cleveland Center
Sat 02:13:24 PM 40.4278 -80.6186 261° West 488 562 30,000 -50 Level Cleveland Center
Sat 02:14:24 PM 40.4047 -80.7931 260° West 488 562 29,900 -1,000 Descending Cleveland Center
Sat 02:15:24 PM 40.3814 -80.9675 260° West 488 562 28,000 -2,000 Descending Cleveland Center
Sat 02:16:24 PM 40.3578 -81.1361 260° West 488 562 25,900 -2,037 Descending Cleveland Center
Sat 02:17:13 PM 40.3367 -81.2756 259° West 471 542 24,300 -2,018 Descending Indianapolis Center
Sat 02:18:14 PM 40.3139 -81.4419 260° West 462 532 22,200 -2,000 Descending Indianapolis Center
Sat 02:19:16 PM 40.2917 -81.6069 260° West 457 526 20,200 -1,951 Descending Indianapolis Center
Sat 02:20:17 PM 40.2694 -81.7667 260° West 442 509 18,200 -1,869 Descending Indianapolis Center
Sat 02:21:18 PM 40.2478 -81.9147 259° West 415 478 16,400 -1,918 Descending Indianapolis Center
Sat 02:21:54 PM 40.2372 -82.0053 261° West 396 456 15,100 -2,083 Descending Indianapolis Center
Sat 02:22:30 PM 40.2233 -82.0908 258° West 391 450 13,900 -2,000 Descending Indianapolis Center
Sat 02:23:21 PM 40.2006 -82.1883 253° West 387 445 12,200 -1,965 Descending Indianapolis Center
Sat 02:24:23 PM 40.1558 -82.3122 245° Southwest 374 430 10,200 -1,122 Descending Indianapolis Center
Sat 02:25:24 PM 40.1058 -82.4161 238° Southwest 334 384 9,900 -634 Descending Indianapolis Center
Sat 02:26:26 PM 40.0772 -82.5006 246° West 268 308 8,900 -1,268 Descending Indianapolis Center
Sat 02:27:27 PM 40.0611 -82.6106 259° West 263 303 7,300 -1,475 Descending Indianapolis Center
Sat 02:28:28 PM 40.0611 -82.7078 270° West 268 308 5,900 -683 Descending Indianapolis Center
Sat 02:29:30 PM 40.0736 -82.8061 279° West 272 313 5,900 49 Level Indianapolis Center
Sat 02:30:31 PM 40.0842 -82.9094 278° West 283 326 6,000 -639 Climbing Indianapolis Center
Sat 02:31:32 PM 40.0958 -83.0069 279° West 274 315 4,600 -1,033 Descending Indianapolis Center
Sat 02:32:33 PM 40.0983 -83.1114 272° West 270 311 3,900 -744 Descending Indianapolis Center
Sat 02:33:33 PM 40.0458 -83.1136 182° South 231 266 3,100 -545 Descending Indianapolis Center
Sat 02:34:34 PM 40.0147 -83.0431 120° Southeast 220 253 2,800 -541 Descending Indianapolis Center
Sat 02:35:35 PM 40.0058 -82.9817 101° East 157 181 2,000 -738 Descending Indianapolis Center
Sat 02:36:36 PM 40.0042 -82.9322 93° East 124 143 1,300 -476 Descending Indianapolis Center
Sat 02:37:41 PM 40.0017 -82.8789 93° East 147 169 1,000 -277 Descending Indianapolis Center

Login

Don't have an account? Register now (free) for customized features, flight alerts, and more!